createdAt,value
2019-02-22T00:01:16.450Z,68.70
2019-02-22T00:03:44.750Z,68.50
2019-02-22T00:06:13.165Z,65.87
2019-02-22T00:08:41.461Z,82.80
2019-02-22T00:11:09.784Z,85.43
2019-02-22T00:13:38.048Z,81.53
2019-02-22T00:16:06.414Z,84.63
2019-02-22T00:18:34.725Z,74.77
2019-02-22T00:21:03.758Z,86.23
2019-02-22T00:23:32.060Z,77.93
2019-02-22T00:26:00.308Z,83.00
2019-02-22T00:28:28.601Z,85.17
2019-02-22T00:30:56.858Z,85.23
2019-02-22T00:33:25.771Z,81.00
2019-02-22T00:35:54.106Z,73.73
2019-02-22T00:38:22.451Z,74.77
2019-02-22T00:40:51.383Z,82.13
2019-02-22T00:43:19.665Z,83.03
2019-02-22T00:45:47.916Z,83.47
2019-02-22T00:48:16.313Z,78.07
2019-02-22T00:50:45.188Z,71.60
2019-02-22T00:53:13.441Z,69.23
2019-02-22T00:55:41.764Z,81.37
2019-02-22T00:58:10.089Z,72.10
2019-02-22T01:00:38.344Z,74.20
2019-02-22T01:03:06.665Z,74.17
2019-02-22T01:05:34.964Z,67.50
2019-02-22T01:08:03.221Z,71.93
2019-02-22T01:10:31.674Z,69.73
2019-02-22T01:13:00.023Z,85.77
2019-02-22T01:15:28.343Z,83.47
2019-02-22T01:17:56.637Z,65.13
2019-02-22T01:20:24.967Z,73.00
2019-02-22T01:22:53.252Z,70.77
2019-02-22T01:25:21.564Z,63.83
2019-02-22T01:27:50.521Z,76.47
2019-02-22T01:30:18.827Z,73.13
2019-02-22T01:32:47.082Z,64.10
2019-02-22T01:35:15.453Z,66.97
2019-02-22T01:37:43.765Z,70.73
2019-02-22T01:40:12.037Z,63.77
2019-02-22T01:42:40.399Z,63.30
2019-02-22T01:45:08.753Z,72.23
2019-02-22T01:47:37.134Z,68.10
2019-02-22T01:50:06.431Z,57.20
2019-02-22T01:52:34.727Z,64.47
2019-02-22T01:55:03.053Z,71.93
2019-02-22T01:57:31.298Z,69.33
2019-02-22T01:59:59.593Z,74.80
2019-02-22T02:02:27.880Z,65.33
2019-02-22T02:04:56.191Z,69.20
2019-02-22T02:07:24.463Z,67.87
2019-02-22T02:09:52.719Z,63.43
2019-02-22T02:12:20.989Z,65.00
2019-02-22T02:14:49.286Z,60.63
2019-02-22T02:17:17.933Z,57.63
2019-02-22T02:19:46.304Z,60.07
2019-02-22T02:22:14.742Z,68.10
2019-02-22T02:24:43.019Z,57.97
2019-02-22T02:27:11.270Z,61.47
2019-02-22T02:29:39.553Z,59.93
2019-02-22T02:32:08.084Z,66.23
2019-02-22T02:34:36.491Z,63.33
2019-02-22T02:37:04.745Z,60.80
2019-02-22T02:39:33.028Z,58.67
2019-02-22T02:42:01.457Z,60.17
2019-02-22T02:44:29.719Z,65.33
2019-02-22T02:46:57.986Z,64.50
2019-02-22T02:49:26.380Z,59.47
2019-02-22T02:51:54.700Z,69.67
2019-02-22T02:54:22.984Z,58.50
2019-02-22T02:56:51.317Z,62.07
2019-02-22T02:59:19.625Z,72.53
2019-02-22T03:01:47.944Z,61.93
2019-02-22T03:04:16.197Z,62.07
2019-02-22T03:06:47.847Z,58.10
2019-02-22T03:09:16.104Z,72.03
2019-02-22T03:11:44.382Z,67.97
2019-02-22T03:14:12.754Z,63.70
2019-02-22T03:16:41.129Z,59.00
2019-02-22T03:19:09.436Z,67.43
2019-02-22T03:21:38.033Z,57.40
2019-02-22T03:24:06.318Z,62.70
2019-02-22T03:26:34.717Z,59.13
2019-02-22T03:29:03.054Z,63.57
2019-02-22T03:31:31.321Z,72.67
2019-02-22T03:33:59.635Z,53.00
2019-02-22T03:36:27.893Z,58.40
2019-02-22T03:38:56.159Z,56.07
2019-02-22T03:41:33.001Z,59.83
2019-02-22T03:43:54.467Z,53.57
2019-02-22T03:46:22.746Z,55.77
2019-02-22T03:48:51.089Z,52.50
2019-02-22T03:51:19.438Z,51.33
2019-02-22T03:53:48.960Z,55.30
2019-02-22T03:56:17.226Z,57.40
2019-02-22T03:58:45.586Z,58.70
2019-02-22T04:01:13.903Z,55.97
2019-02-22T04:03:42.201Z,62.63
2019-02-22T04:06:10.471Z,59.73
2019-02-22T04:08:38.779Z,67.43
2019-02-22T04:11:07.059Z,61.73
2019-02-22T04:13:35.664Z,56.27
2019-02-22T04:16:03.927Z,55.70
2019-02-22T04:18:32.227Z,61.83
2019-02-22T04:21:01.517Z,63.33
2019-02-22T04:23:29.768Z,53.63
2019-02-22T04:25:58.088Z,56.77
2019-02-22T04:28:26.364Z,58.93
2019-02-22T04:30:54.690Z,61.60
2019-02-22T04:33:22.994Z,55.03
2019-02-22T04:35:51.370Z,62.80
2019-02-22T04:38:19.661Z,62.17
2019-02-22T04:40:47.910Z,62.80
2019-02-22T04:43:16.193Z,64.67
2019-02-22T04:45:44.505Z,61.20
2019-02-22T04:48:12.778Z,61.80
2019-02-22T04:50:41.033Z,56.90
2019-02-22T04:53:09.444Z,55.67
2019-02-22T04:55:37.696Z,64.53
2019-02-22T04:58:05.959Z,64.00
2019-02-22T05:00:34.273Z,63.70
2019-02-22T05:03:02.556Z,60.90
2019-02-22T05:05:31.019Z,72.57
2019-02-22T05:07:59.425Z,64.07
2019-02-22T05:10:27.677Z,67.13
2019-02-22T05:12:55.939Z,66.43
2019-02-22T05:15:24.275Z,65.77
2019-02-22T05:17:52.545Z,73.03
2019-02-22T05:20:20.798Z,77.77
2019-02-22T05:22:49.073Z,65.87
2019-02-22T05:25:17.338Z,76.90
2019-02-22T05:27:45.640Z,70.60
2019-02-22T05:30:13.894Z,77.53
2019-02-22T05:32:42.164Z,66.57
2019-02-22T05:35:10.510Z,68.87
2019-02-22T05:37:38.759Z,72.63
2019-02-22T05:40:07.092Z,72.10
2019-02-22T05:42:35.401Z,59.37
2019-02-22T05:45:05.485Z,67.50
2019-02-22T05:47:33.780Z,72.20
2019-02-22T05:50:02.040Z,76.43
2019-02-22T05:52:31.072Z,73.73
2019-02-22T05:54:59.427Z,70.60
2019-02-22T05:57:27.723Z,81.90
2019-02-22T05:59:56.108Z,61.50
2019-02-22T06:02:24.375Z,57.60
2019-02-22T06:04:52.627Z,68.70
2019-02-22T06:07:20.913Z,64.67
2019-02-22T06:09:49.242Z,58.27
2019-02-22T06:12:18.545Z,63.47
2019-02-22T06:14:47.002Z,58.43
2019-02-22T06:17:15.319Z,60.00
2019-02-22T06:19:43.693Z,64.73
2019-02-22T06:22:12.206Z,59.80
2019-02-22T06:24:40.476Z,70.40
2019-02-22T06:27:08.738Z,70.27
2019-02-22T06:29:37.016Z,60.87
2019-02-22T06:32:05.272Z,54.33
2019-02-22T06:34:34.354Z,73.73
2019-02-22T06:37:02.659Z,60.13
2019-02-22T06:39:30.939Z,57.33
2019-02-22T06:41:59.329Z,58.00
2019-02-22T06:44:27.655Z,56.83
2019-02-22T06:46:55.943Z,55.30
2019-02-22T06:49:25.838Z,61.37
2019-02-22T06:51:54.150Z,63.07
2019-02-22T06:54:22.415Z,66.03
2019-02-22T06:56:50.689Z,62.03
2019-02-22T06:59:18.968Z,60.27
2019-02-22T07:01:49.873Z,61.30
2019-02-22T07:04:17.290Z,59.27
2019-02-22T07:06:45.675Z,59.93
2019-02-22T07:09:13.945Z,66.07
2019-02-22T07:11:46.568Z,60.23
2019-02-22T07:14:14.881Z,59.73
2019-02-22T07:16:43.280Z,68.90
2019-02-22T07:19:11.495Z,62.90
2019-02-22T07:21:51.832Z,67.40
2019-02-22T07:24:09.835Z,75.67
2019-02-22T07:26:38.094Z,61.80
2019-02-22T07:29:06.340Z,65.13
2019-02-22T07:31:34.662Z,67.83
2019-02-22T07:34:02.968Z,60.90
2019-02-22T07:36:31.230Z,65.30
2019-02-22T07:38:59.514Z,58.40
2019-02-22T07:41:27.799Z,69.13
2019-02-22T07:43:56.168Z,64.07
2019-02-22T07:46:24.452Z,69.50
2019-02-22T07:48:52.771Z,69.27
2019-02-22T07:51:21.031Z,64.93
2019-02-22T07:53:49.353Z,67.50
2019-02-22T07:56:19.199Z,75.27
2019-02-22T07:58:47.556Z,60.90
2019-02-22T08:01:15.857Z,69.07
2019-02-22T08:03:44.102Z,76.00
2019-02-22T08:06:12.390Z,69.80
2019-02-22T08:08:40.681Z,75.13
2019-02-22T08:11:08.956Z,69.60
2019-02-22T08:13:37.440Z,84.90
2019-02-22T08:16:05.684Z,71.60
2019-02-22T08:18:33.972Z,74.53
2019-02-22T08:21:02.571Z,77.80
2019-02-22T08:23:30.832Z,71.20
2019-02-22T08:25:59.167Z,66.63
2019-02-22T08:28:27.431Z,74.80
2019-02-22T08:30:55.697Z,75.13
2019-02-22T08:33:23.992Z,67.20
2019-02-22T08:35:52.296Z,66.93
2019-02-22T08:38:20.616Z,58.80
2019-02-22T08:40:49.541Z,70.37
2019-02-22T08:43:17.879Z,58.40
2019-02-22T08:45:46.187Z,51.30
2019-02-22T08:48:14.439Z,53.23
2019-02-22T08:50:42.714Z,62.83
2019-02-22T08:53:10.986Z,52.00
2019-02-22T08:55:39.296Z,52.70
2019-02-22T08:58:07.557Z,61.07
2019-02-22T09:00:36.454Z,54.07
2019-02-22T09:03:04.710Z,53.97
2019-02-22T09:05:32.966Z,48.80
2019-02-22T09:08:01.349Z,42.40
2019-02-22T09:10:29.611Z,46.50
2019-02-22T09:12:57.883Z,44.60
2019-02-22T09:15:26.162Z,54.67
2019-02-22T09:17:55.381Z,44.23
2019-02-22T09:20:23.794Z,72.90
2019-02-22T09:22:52.110Z,64.50
2019-02-22T09:25:20.357Z,55.67
2019-02-22T09:27:48.644Z,57.03
2019-02-22T09:30:16.963Z,52.70
2019-02-22T09:32:45.339Z,56.47
2019-02-22T09:35:13.951Z,54.33
2019-02-22T09:37:42.199Z,49.10
2019-02-22T09:40:14.380Z,44.73
2019-02-22T09:42:42.062Z,63.60
2019-02-22T09:45:11.909Z,57.17
2019-02-22T09:47:40.218Z,47.50
2019-02-22T09:50:11.267Z,50.30
2019-02-22T09:52:39.526Z,51.83
2019-02-22T09:55:09.841Z,49.73
2019-02-22T09:57:38.178Z,48.37
2019-02-22T10:00:10.090Z,54.30
2019-02-22T10:02:38.320Z,42.43
2019-02-22T10:05:08.551Z,39.43
2019-02-22T10:07:36.835Z,46.33
2019-02-22T10:10:07.517Z,56.53
2019-02-22T10:12:35.772Z,49.90
2019-02-22T10:15:04.901Z,47.57
2019-02-22T10:17:34.015Z,55.43
2019-02-22T10:20:02.338Z,45.50
2019-02-22T10:22:30.673Z,40.70
2019-02-22T10:24:58.993Z,37.33
2019-02-22T10:27:27.291Z,43.60
2019-02-22T10:29:55.589Z,37.73
2019-02-22T10:32:23.933Z,47.27
2019-02-22T10:34:52.257Z,45.00
2019-02-22T10:37:20.508Z,45.23
2019-02-22T10:39:48.996Z,55.00
2019-02-22T10:42:17.328Z,38.77
2019-02-22T10:44:45.680Z,42.63
2019-02-22T10:47:14.002Z,42.70
2019-02-22T10:49:42.302Z,44.90
2019-02-22T10:52:10.627Z,49.53
2019-02-22T10:54:38.949Z,39.70
2019-02-22T10:57:07.291Z,44.77
2019-02-22T10:59:35.544Z,49.33
2019-02-22T11:02:03.818Z,43.07
2019-02-22T11:04:32.115Z,31.47
2019-02-22T11:07:00.538Z,35.73
2019-02-22T11:09:28.827Z,30.53
2019-02-22T11:11:57.088Z,36.63
2019-02-22T11:14:29.174Z,36.73
2019-02-22T11:16:55.500Z,33.80
2019-02-22T11:19:23.816Z,28.93
2019-02-22T11:21:52.099Z,24.20
2019-02-22T11:24:20.387Z,26.60
2019-02-22T11:26:48.676Z,32.80
2019-02-22T11:29:16.954Z,30.03
2019-02-22T11:31:45.264Z,29.07
2019-02-22T11:34:13.589Z,27.13
2019-02-22T11:36:41.897Z,24.77
2019-02-22T11:39:10.164Z,26.33
2019-02-22T11:41:38.475Z,24.03
2019-02-22T11:44:08.437Z,18.00
2019-02-22T11:46:36.749Z,24.60
2019-02-22T11:49:05.003Z,41.70
2019-02-22T11:51:34.050Z,26.90
2019-02-22T11:54:02.282Z,35.07
2019-02-22T11:56:30.586Z,22.37
2019-02-22T11:58:58.870Z,30.77
2019-02-22T12:01:27.141Z,20.80
2019-02-22T12:03:55.434Z,29.70
2019-02-22T12:06:23.796Z,25.43
2019-02-22T12:08:52.307Z,20.53
2019-02-22T12:11:20.610Z,19.40
2019-02-22T12:13:48.936Z,21.33
2019-02-22T12:16:17.217Z,15.03
2019-02-22T12:18:45.529Z,19.77
2019-02-22T12:21:13.860Z,15.37
2019-02-22T12:23:42.133Z,11.47
2019-02-22T12:26:10.388Z,15.07
2019-02-22T12:28:38.668Z,10.60
2019-02-22T12:31:07.007Z,12.57
2019-02-22T12:33:35.248Z,14.93
2019-02-22T12:36:04.584Z,15.23
2019-02-22T12:38:32.876Z,13.53
2019-02-22T12:41:01.184Z,16.20
2019-02-22T12:43:29.521Z,16.20
2019-02-22T12:45:57.816Z,18.57
2019-02-22T12:48:26.066Z,29.67
2019-02-22T12:50:55.026Z,19.50
2019-02-22T12:53:23.321Z,23.80
2019-02-22T12:55:51.777Z,30.67
2019-02-22T12:58:20.030Z,24.10
2019-02-22T13:00:48.281Z,25.20
2019-02-22T13:03:16.572Z,22.57
2019-02-22T13:05:44.881Z,28.60
2019-02-22T13:08:13.189Z,37.90
2019-02-22T13:10:41.458Z,36.37
2019-02-22T13:13:10.071Z,43.27
2019-02-22T13:15:38.416Z,33.70
2019-02-22T13:18:06.720Z,41.50
2019-02-22T13:20:35.020Z,36.93
2019-02-22T13:23:03.353Z,40.40
2019-02-22T13:25:31.607Z,50.90
2019-02-22T13:27:59.865Z,42.20
2019-02-22T13:30:28.243Z,48.83
2019-02-22T13:32:56.519Z,49.00
2019-02-22T13:35:24.822Z,47.27
2019-02-22T13:37:53.140Z,51.33
2019-02-22T13:40:21.436Z,63.30
2019-02-22T13:42:49.926Z,56.67
2019-02-22T13:45:26.777Z,47.77
2019-02-22T13:47:48.274Z,42.80
2019-02-22T13:50:17.673Z,48.80
2019-02-22T13:52:45.969Z,49.53
2019-02-22T13:55:14.496Z,49.17
2019-02-22T13:57:43.384Z,48.10
2019-02-22T14:00:17.755Z,49.60
2019-02-22T14:02:46.085Z,47.40
2019-02-22T14:05:14.378Z,46.30
2019-02-22T14:07:51.420Z,43.97
2019-02-22T14:10:20.268Z,38.67
2019-02-22T14:12:49.090Z,43.63
2019-02-22T14:15:18.838Z,36.70
2019-02-22T14:17:48.224Z,38.77
2019-02-22T14:20:16.466Z,37.53
2019-02-22T14:22:44.899Z,37.17
2019-02-22T14:25:13.197Z,37.33
2019-02-22T14:27:41.462Z,41.57
2019-02-22T14:30:12.594Z,39.90
2019-02-22T14:32:40.906Z,47.67
2019-02-22T14:35:09.161Z,40.17
2019-02-22T14:37:37.454Z,40.33
2019-02-22T14:40:10.921Z,48.37
2019-02-22T14:42:39.224Z,45.63
2019-02-22T14:45:09.260Z,46.20
2019-02-22T14:47:37.538Z,46.30
2019-02-22T14:50:09.090Z,50.47
2019-02-22T14:52:37.388Z,43.00
2019-02-22T14:55:07.095Z,39.87
2019-02-22T14:57:35.396Z,51.80
2019-02-22T15:00:06.178Z,55.77
2019-02-22T15:02:34.474Z,37.17
2019-02-22T15:05:02.915Z,41.37
2019-02-22T15:07:31.163Z,36.53
2019-02-22T15:09:59.470Z,37.03
2019-02-22T15:12:27.938Z,32.77
2019-02-22T15:14:56.491Z,33.70
2019-02-22T15:17:27.428Z,29.30
2019-02-22T15:19:56.049Z,32.20
2019-02-22T15:22:24.311Z,30.60
2019-02-22T15:24:53.789Z,31.97
2019-02-22T15:27:22.258Z,33.43
2019-02-22T15:29:50.676Z,28.30
2019-02-22T15:32:18.928Z,24.00
2019-02-22T15:34:47.361Z,32.30
2019-02-22T15:37:15.641Z,27.20
2019-02-22T15:39:43.946Z,27.77
2019-02-22T15:42:12.248Z,23.47
2019-02-22T15:44:40.491Z,26.70
2019-02-22T15:47:12.017Z,29.57
2019-02-22T15:49:38.858Z,23.27
2019-02-22T15:52:07.113Z,24.00
2019-02-22T15:54:35.440Z,24.87
2019-02-22T15:57:03.694Z,24.63
2019-02-22T15:59:31.986Z,22.90
2019-02-22T16:02:00.261Z,21.73
2019-02-22T16:04:45.351Z,20.90
2019-02-22T16:07:13.737Z,23.50
2019-02-22T16:09:42.051Z,24.33
2019-02-22T16:12:10.419Z,24.50
2019-02-22T16:14:38.731Z,20.87
2019-02-22T16:17:07.350Z,27.17
2019-02-22T16:19:35.652Z,23.60
2019-02-22T16:22:03.956Z,21.47
2019-02-22T16:24:32.207Z,23.87
2019-02-22T16:27:03.202Z,24.17
2019-02-22T16:29:31.546Z,28.07
2019-02-22T16:31:59.972Z,24.93
2019-02-22T16:34:28.270Z,38.77
2019-02-22T16:36:56.607Z,32.00
2019-02-22T16:39:24.918Z,21.27
2019-02-22T16:41:53.182Z,24.80
2019-02-22T16:44:21.470Z,28.40
2019-02-22T16:46:49.774Z,30.30
2019-02-22T16:49:18.184Z,28.20
2019-02-22T16:51:46.491Z,31.20
2019-02-22T16:54:14.771Z,23.63
2019-02-22T16:56:43.187Z,25.73
2019-02-22T16:59:11.443Z,30.60
2019-02-22T17:01:39.844Z,30.47
2019-02-22T17:04:08.130Z,29.03
2019-02-22T17:06:36.403Z,27.60
2019-02-22T17:09:05.214Z,37.77
2019-02-22T17:11:33.476Z,30.53
2019-02-22T17:14:01.920Z,29.20
2019-02-22T17:16:30.184Z,32.23
2019-02-22T17:18:58.442Z,28.73
2019-02-22T17:21:26.770Z,37.97
2019-02-22T17:23:55.119Z,32.37
2019-02-22T17:26:23.416Z,30.37
2019-02-22T17:28:51.703Z,33.33
2019-02-22T17:31:20.012Z,37.77
2019-02-22T17:33:48.568Z,39.37
2019-02-22T17:36:26.468Z,37.00
2019-02-22T17:38:47.027Z,37.87
2019-02-22T17:41:15.326Z,37.47
2019-02-22T17:43:43.631Z,36.10
2019-02-22T17:46:11.973Z,37.83
2019-02-22T17:48:40.234Z,36.57
2019-02-22T17:51:08.493Z,37.37
2019-02-22T17:53:36.843Z,39.73
2019-02-22T17:56:05.100Z,37.87
2019-02-22T17:58:33.798Z,31.13
2019-02-22T18:01:02.414Z,31.33
2019-02-22T18:03:30.674Z,42.73
2019-02-22T18:05:58.997Z,33.73
2019-02-22T18:08:27.296Z,25.87
2019-02-22T18:10:55.548Z,26.60
2019-02-22T18:13:23.803Z,26.63
2019-02-22T18:15:52.119Z,29.07
2019-02-22T18:18:22.018Z,18.27
2019-02-22T18:20:50.651Z,26.60
2019-02-22T18:23:19.692Z,21.67
2019-02-22T18:25:47.998Z,20.00
2019-02-22T18:28:16.301Z,16.73
2019-02-22T18:30:44.551Z,20.07
2019-02-22T18:33:12.897Z,18.00
2019-02-22T18:35:41.149Z,19.60
2019-02-22T18:38:12.269Z,21.03
2019-02-22T18:40:40.572Z,23.67
2019-02-22T18:43:08.823Z,18.37
2019-02-22T18:45:37.100Z,18.97
2019-02-22T18:48:05.466Z,23.90
2019-02-22T18:50:33.748Z,21.10
2019-02-22T18:53:02.262Z,21.60
2019-02-22T18:55:30.544Z,23.33
2019-02-22T18:57:58.836Z,17.77
2019-02-22T19:00:27.169Z,24.87
2019-02-22T19:02:55.474Z,18.73
2019-02-22T19:05:23.759Z,19.80
2019-02-22T19:07:52.031Z,21.60
2019-02-22T19:10:20.457Z,24.23
2019-02-22T19:12:48.879Z,27.20
2019-02-22T19:15:17.245Z,19.77
2019-02-22T19:17:45.675Z,19.33
2019-02-22T19:20:16.177Z,20.10
2019-02-22T19:22:44.438Z,19.03
2019-02-22T19:25:13.032Z,14.97
2019-02-22T19:27:41.737Z,21.20
2019-02-22T19:30:15.636Z,17.97
2019-02-22T19:32:44.013Z,15.10
2019-02-22T19:35:12.291Z,18.13
2019-02-22T19:37:40.956Z,15.60
2019-02-22T19:40:12.067Z,17.03
2019-02-22T19:42:40.807Z,12.03
2019-02-22T19:45:11.209Z,13.90
2019-02-22T19:47:42.086Z,12.63
2019-02-22T19:50:11.766Z,17.70
2019-02-22T19:52:40.092Z,13.83
2019-02-22T19:55:11.308Z,16.93
2019-02-22T19:57:40.014Z,13.67
2019-02-22T20:00:15.372Z,18.53
2019-02-22T20:02:44.142Z,15.47
2019-02-22T20:05:13.504Z,13.70
2019-02-22T20:07:42.182Z,14.20
2019-02-22T20:10:17.835Z,15.80
2019-02-22T20:12:44.274Z,17.40
2019-02-22T20:15:14.751Z,17.83
2019-02-22T20:17:53.321Z,16.57
2019-02-22T20:20:15.827Z,15.07
2019-02-22T20:22:44.247Z,17.13
2019-02-22T20:25:12.985Z,14.40
2019-02-22T20:27:41.825Z,16.03
2019-02-22T20:30:16.182Z,33.93
2019-02-22T20:32:44.449Z,14.37
2019-02-22T20:35:22.519Z,14.83
2019-02-22T20:37:53.044Z,13.97
2019-02-22T20:40:21.340Z,14.90
2019-02-22T20:42:49.807Z,14.33
2019-02-22T20:45:18.530Z,21.30
2019-02-22T20:47:46.857Z,13.90
2019-02-22T20:50:15.273Z,19.60
2019-02-22T20:52:43.558Z,19.73
2019-02-22T20:55:12.059Z,15.43
2019-02-22T20:57:40.312Z,13.83
2019-02-22T21:00:11.609Z,13.43
2019-02-22T21:02:40.342Z,14.73
2019-02-22T21:05:10.270Z,16.80
2019-02-22T21:07:38.591Z,12.93
2019-02-22T21:10:10.288Z,12.57
2019-02-22T21:12:38.781Z,15.07
2019-02-22T21:15:10.654Z,14.77
2019-02-22T21:17:39.438Z,15.63
2019-02-22T21:20:13.349Z,12.80
2019-02-22T21:22:41.669Z,17.93
2019-02-22T21:25:11.224Z,15.13
2019-02-22T21:27:39.622Z,14.07
2019-02-22T21:30:13.899Z,11.20
2019-02-22T21:32:42.215Z,11.70
2019-02-22T21:35:10.576Z,15.27
2019-02-22T21:37:40.245Z,13.80
2019-02-22T21:40:10.261Z,14.20
2019-02-22T21:42:38.526Z,17.80
2019-02-22T21:45:10.064Z,19.60
2019-02-22T21:47:38.322Z,11.67
2019-02-22T21:50:14.518Z,14.20
2019-02-22T21:52:42.820Z,11.50
2019-02-22T21:55:12.441Z,13.53
2019-02-22T21:57:40.710Z,16.20
2019-02-22T22:00:23.650Z,15.57
2019-02-22T22:02:51.937Z,13.70
2019-02-22T22:05:21.269Z,14.70
2019-02-22T22:07:49.707Z,14.00
2019-02-22T22:10:18.041Z,12.60
2019-02-22T22:12:46.317Z,12.80
2019-02-22T22:15:15.669Z,13.40
2019-02-22T22:17:44.035Z,8.60
2019-02-22T22:20:12.318Z,11.57
2019-02-22T22:22:40.566Z,11.93
2019-02-22T22:25:11.277Z,7.80
2019-02-22T22:27:39.584Z,8.10
2019-02-22T22:30:10.481Z,9.67
2019-02-22T22:32:38.795Z,12.70
2019-02-22T22:35:14.721Z,18.53
2019-02-22T22:37:42.998Z,15.63
2019-02-22T22:40:11.320Z,11.63
2019-02-22T22:42:39.597Z,13.03
2019-02-22T22:45:10.539Z,12.60
2019-02-22T22:47:38.814Z,14.13
2019-02-22T22:50:10.301Z,17.27
2019-02-22T22:52:38.605Z,19.83
2019-02-22T22:55:08.295Z,20.83
2019-02-22T22:57:36.590Z,26.87
2019-02-22T23:00:25.847Z,20.47
2019-02-22T23:02:54.225Z,28.90
2019-02-22T23:05:22.534Z,23.53
2019-02-22T23:07:50.784Z,23.80
2019-02-22T23:10:19.112Z,25.97
2019-02-22T23:12:47.478Z,24.33
2019-02-22T23:15:15.754Z,32.77
2019-02-22T23:17:44.023Z,35.60
2019-02-22T23:20:12.355Z,30.33
2019-02-22T23:22:40.660Z,29.60
2019-02-22T23:25:08.913Z,28.93
2019-02-22T23:27:37.162Z,29.87
2019-02-22T23:30:07.101Z,27.67
2019-02-22T23:32:35.352Z,24.90
2019-02-22T23:35:04.412Z,29.43
2019-02-22T23:37:32.684Z,29.07
2019-02-22T23:40:01.066Z,30.30
2019-02-22T23:42:29.346Z,32.90
2019-02-22T23:44:57.634Z,28.30
2019-02-22T23:47:25.955Z,31.80
2019-02-22T23:49:54.218Z,33.43
2019-02-22T23:52:22.743Z,31.33
2019-02-22T23:54:50.990Z,31.97
2019-02-22T23:57:19.272Z,32.23
2019-02-22T23:59:47.561Z,39.33
